sensor_id;sensor_type;location;lat;lon;timestamp;temperature;humidity
36444;DHT22;24692;45.642;13.806;2023-06-04T00:00:40;20.50;99.90
36444;DHT22;24692;45.642;13.806;2023-06-04T00:03:06;20.30;99.90
36444;DHT22;24692;45.642;13.806;2023-06-04T00:05:32;20.30;99.90
36444;DHT22;24692;45.642;13.806;2023-06-04T00:07:57;20.20;99.90
36444;DHT22;24692;45.642;13.806;2023-06-04T00:10:23;20.20;99.90
36444;DHT22;24692;45.642;13.806;2023-06-04T00:12:48;20.10;99.90
36444;DHT22;24692;45.642;13.806;2023-06-04T00:15:14;20.10;99.90
36444;DHT22;24692;45.642;13.806;2023-06-04T00:17:42;20.00;99.90
36444;DHT22;24692;45.642;13.806;2023-06-04T00:20:08;20.10;99.90
36444;DHT22;24692;45.642;13.806;2023-06-04T00:22:34;20.10;99.90
36444;DHT22;24692;45.642;13.806;2023-06-04T00:25:00;20.10;99.90
36444;DHT22;24692;45.642;13.806;2023-06-04T00:27:25;20.20;99.90
36444;DHT22;24692;45.642;13.806;2023-06-04T00:29:51;20.20;99.90
36444;DHT22;24692;45.642;13.806;2023-06-04T00:32:16;20.20;99.90
36444;DHT22;24692;45.642;13.806;2023-06-04T00:34:42;20.20;99.90
36444;DHT22;24692;45.642;13.806;2023-06-04T00:37:08;20.20;99.90
36444;DHT22;24692;45.642;13.806;2023-06-04T00:39:33;20.20;99.90
36444;DHT22;24692;45.642;13.806;2023-06-04T00:42:00;20.30;99.90
36444;DHT22;24692;45.642;13.806;2023-06-04T00:44:26;20.30;99.90
36444;DHT22;24692;45.642;13.806;2023-06-04T00:46:52;20.30;99.90
36444;DHT22;24692;45.642;13.806;2023-06-04T00:49:19;20.20;99.90
36444;DHT22;24692;45.642;13.806;2023-06-04T00:51:45;20.20;99.90
36444;DHT22;24692;45.642;13.806;2023-06-04T00:54:12;20.20;99.90
36444;DHT22;24692;45.642;13.806;2023-06-04T00:56:38;20.20;99.90
36444;DHT22;24692;45.642;13.806;2023-06-04T00:59:07;20.10;99.90
36444;DHT22;24692;45.642;13.806;2023-06-04T01:04:29;20.10;99.90
36444;DHT22;24692;45.642;13.806;2023-06-04T01:06:57;20.10;99.90
36444;DHT22;24692;45.642;13.806;2023-06-04T01:09:26;20.10;99.90
36444;DHT22;24692;45.642;13.806;2023-06-04T01:11:51;20.00;99.90
36444;DHT22;24692;45.642;13.806;2023-06-04T01:14:17;20.00;99.90
36444;DHT22;24692;45.642;13.806;2023-06-04T01:16:55;20.00;99.90
36444;DHT22;24692;45.642;13.806;2023-06-04T01:22:36;20.00;99.90
36444;DHT22;24692;45.642;13.806;2023-06-04T01:25:05;20.00;99.90
36444;DHT22;24692;45.642;13.806;2023-06-04T01:27:35;20.00;99.90
36444;DHT22;24692;45.642;13.806;2023-06-04T01:30:02;20.00;99.90
36444;DHT22;24692;45.642;13.806;2023-06-04T01:32:29;20.00;99.90
36444;DHT22;24692;45.642;13.806;2023-06-04T01:34:55;20.00;99.90
36444;DHT22;24692;45.642;13.806;2023-06-04T01:37:21;20.00;99.90
36444;DHT22;24692;45.642;13.806;2023-06-04T01:39:47;19.90;99.90
36444;DHT22;24692;45.642;13.806;2023-06-04T01:42:12;19.90;99.90
36444;DHT22;24692;45.642;13.806;2023-06-04T01:44:38;19.90;99.90
36444;DHT22;24692;45.642;13.806;2023-06-04T01:47:04;19.90;99.90
36444;DHT22;24692;45.642;13.806;2023-06-04T01:49:29;19.90;99.90
36444;DHT22;24692;45.642;13.806;2023-06-04T01:51:55;19.90;99.90
36444;DHT22;24692;45.642;13.806;2023-06-04T01:54:21;19.90;99.90
36444;DHT22;24692;45.642;13.806;2023-06-04T01:56:47;19.90;99.90
36444;DHT22;24692;45.642;13.806;2023-06-04T01:59:14;19.90;99.90
36444;DHT22;24692;45.642;13.806;2023-06-04T02:01:41;19.90;99.90
36444;DHT22;24692;45.642;13.806;2023-06-04T02:04:07;19.90;99.90
36444;DHT22;24692;45.642;13.806;2023-06-04T02:06:33;19.90;99.90
36444;DHT22;24692;45.642;13.806;2023-06-04T02:08:59;19.90;99.90
36444;DHT22;24692;45.642;13.806;2023-06-04T02:11:26;19.90;99.90
36444;DHT22;24692;45.642;13.806;2023-06-04T02:13:51;19.90;99.90
36444;DHT22;24692;45.642;13.806;2023-06-04T02:16:17;19.90;99.90
36444;DHT22;24692;45.642;13.806;2023-06-04T02:18:42;19.90;99.90
36444;DHT22;24692;45.642;13.806;2023-06-04T02:21:08;19.90;99.90
36444;DHT22;24692;45.642;13.806;2023-06-04T02:23:34;19.90;99.90
36444;DHT22;24692;45.642;13.806;2023-06-04T02:25:59;19.90;99.90
36444;DHT22;24692;45.642;13.806;2023-06-04T02:28:25;19.90;99.90
36444;DHT22;24692;45.642;13.806;2023-06-04T02:30:51;19.90;99.90
36444;DHT22;24692;45.642;13.806;2023-06-04T02:33:16;19.90;99.90
36444;DHT22;24692;45.642;13.806;2023-06-04T02:35:42;19.90;99.90
36444;DHT22;24692;45.642;13.806;2023-06-04T02:38:08;19.90;99.90
36444;DHT22;24692;45.642;13.806;2023-06-04T02:40:34;20.00;99.90
36444;DHT22;24692;45.642;13.806;2023-06-04T02:43:00;20.00;99.90
36444;DHT22;24692;45.642;13.806;2023-06-04T02:45:25;20.10;99.90
36444;DHT22;24692;45.642;13.806;2023-06-04T02:47:51;20.10;99.90
36444;DHT22;24692;45.642;13.806;2023-06-04T02:50:17;20.10;99.90
36444;DHT22;24692;45.642;13.806;2023-06-04T02:52:43;20.10;99.90
36444;DHT22;24692;45.642;13.806;2023-06-04T02:55:09;20.10;99.90
36444;DHT22;24692;45.642;13.806;2023-06-04T02:57:38;20.10;99.90
36444;DHT22;24692;45.642;13.806;2023-06-04T03:00:05;20.20;99.90
36444;DHT22;24692;45.642;13.806;2023-06-04T03:02:42;20.30;99.90
36444;DHT22;24692;45.642;13.806;2023-06-04T03:05:09;20.30;99.90
36444;DHT22;24692;45.642;13.806;2023-06-04T03:07:36;20.40;99.90
36444;DHT22;24692;45.642;13.806;2023-06-04T03:10:02;20.40;99.90
36444;DHT22;24692;45.642;13.806;2023-06-04T03:12:29;20.50;99.90
36444;DHT22;24692;45.642;13.806;2023-06-04T03:14:55;20.50;99.90
36444;DHT22;24692;45.642;13.806;2023-06-04T03:17:20;20.50;99.90
36444;DHT22;24692;45.642;13.806;2023-06-04T03:19:46;20.50;99.90
36444;DHT22;24692;45.642;13.806;2023-06-04T03:22:13;20.50;99.90
36444;DHT22;24692;45.642;13.806;2023-06-04T03:24:40;20.50;99.90
36444;DHT22;24692;45.642;13.806;2023-06-04T03:27:07;20.40;99.90
36444;DHT22;24692;45.642;13.806;2023-06-04T03:29:34;20.40;99.90
36444;DHT22;24692;45.642;13.806;2023-06-04T03:32:00;20.40;99.90
36444;DHT22;24692;45.642;13.806;2023-06-04T03:34:26;20.40;99.90
36444;DHT22;24692;45.642;13.806;2023-06-04T03:36:53;20.40;99.90
36444;DHT22;24692;45.642;13.806;2023-06-04T03:39:20;20.30;99.90
36444;DHT22;24692;45.642;13.806;2023-06-04T03:41:45;20.30;99.90
36444;DHT22;24692;45.642;13.806;2023-06-04T03:44:15;20.30;99.90
36444;DHT22;24692;45.642;13.806;2023-06-04T03:46:41;20.30;99.90
36444;DHT22;24692;45.642;13.806;2023-06-04T03:49:08;20.40;99.90
36444;DHT22;24692;45.642;13.806;2023-06-04T03:51:34;20.30;99.90
36444;DHT22;24692;45.642;13.806;2023-06-04T03:54:00;20.40;99.90
36444;DHT22;24692;45.642;13.806;2023-06-04T03:56:27;20.40;99.90
36444;DHT22;24692;45.642;13.806;2023-06-04T03:58:54;20.40;99.90
36444;DHT22;24692;45.642;13.806;2023-06-04T04:01:19;20.40;99.90
36444;DHT22;24692;45.642;13.806;2023-06-04T04:03:45;20.40;99.90
36444;DHT22;24692;45.642;13.806;2023-06-04T04:06:15;20.40;99.90
36444;DHT22;24692;45.642;13.806;2023-06-04T04:08:41;20.50;99.90
36444;DHT22;24692;45.642;13.806;2023-06-04T04:11:11;20.50;99.90
36444;DHT22;24692;45.642;13.806;2023-06-04T04:13:36;20.50;99.90
36444;DHT22;24692;45.642;13.806;2023-06-04T04:16:02;20.60;99.90
36444;DHT22;24692;45.642;13.806;2023-06-04T04:18:28;20.70;99.90
36444;DHT22;24692;45.642;13.806;2023-06-04T04:20:53;20.80;99.90
36444;DHT22;24692;45.642;13.806;2023-06-04T04:23:19;20.80;99.90
36444;DHT22;24692;45.642;13.806;2023-06-04T04:25:45;20.90;99.90
36444;DHT22;24692;45.642;13.806;2023-06-04T04:28:11;20.90;99.90
36444;DHT22;24692;45.642;13.806;2023-06-04T04:30:37;20.90;99.90
36444;DHT22;24692;45.642;13.806;2023-06-04T04:33:03;21.00;99.90
36444;DHT22;24692;45.642;13.806;2023-06-04T04:35:30;20.90;99.90
36444;DHT22;24692;45.642;13.806;2023-06-04T04:37:58;20.90;99.90
36444;DHT22;24692;45.642;13.806;2023-06-04T04:40:24;21.10;99.90
36444;DHT22;24692;45.642;13.806;2023-06-04T04:42:50;21.00;99.90
36444;DHT22;24692;45.642;13.806;2023-06-04T04:45:15;21.10;99.90
36444;DHT22;24692;45.642;13.806;2023-06-04T04:47:42;21.20;99.90
36444;DHT22;24692;45.642;13.806;2023-06-04T04:50:08;21.20;99.90
36444;DHT22;24692;45.642;13.806;2023-06-04T04:52:34;21.30;99.90
36444;DHT22;24692;45.642;13.806;2023-06-04T04:55:00;21.30;99.90
36444;DHT22;24692;45.642;13.806;2023-06-04T04:57:25;21.50;99.90
36444;DHT22;24692;45.642;13.806;2023-06-04T04:59:51;21.60;99.90
36444;DHT22;24692;45.642;13.806;2023-06-04T05:02:17;21.70;99.90
36444;DHT22;24692;45.642;13.806;2023-06-04T05:04:43;21.80;99.90
36444;DHT22;24692;45.642;13.806;2023-06-04T05:07:08;21.90;99.90
36444;DHT22;24692;45.642;13.806;2023-06-04T05:09:34;22.00;99.90
36444;DHT22;24692;45.642;13.806;2023-06-04T05:12:00;22.10;99.90
36444;DHT22;24692;45.642;13.806;2023-06-04T05:14:25;22.20;99.90
36444;DHT22;24692;45.642;13.806;2023-06-04T05:16:51;22.20;99.90
36444;DHT22;24692;45.642;13.806;2023-06-04T05:19:17;22.20;99.90
36444;DHT22;24692;45.642;13.806;2023-06-04T05:21:43;22.20;99.90
36444;DHT22;24692;45.642;13.806;2023-06-04T05:24:09;22.20;99.90
36444;DHT22;24692;45.642;13.806;2023-06-04T05:26:36;22.30;99.90
36444;DHT22;24692;45.642;13.806;2023-06-04T05:29:02;22.30;99.90
36444;DHT22;24692;45.642;13.806;2023-06-04T05:31:29;22.30;99.90
36444;DHT22;24692;45.642;13.806;2023-06-04T05:34:02;22.40;99.90
36444;DHT22;24692;45.642;13.806;2023-06-04T05:36:30;22.40;99.90
36444;DHT22;24692;45.642;13.806;2023-06-04T05:38:56;22.30;99.90
36444;DHT22;24692;45.642;13.806;2023-06-04T05:41:25;22.40;99.90
36444;DHT22;24692;45.642;13.806;2023-06-04T05:43:51;22.40;99.90
36444;DHT22;24692;45.642;13.806;2023-06-04T05:46:17;22.50;99.90
36444;DHT22;24692;45.642;13.806;2023-06-04T05:48:43;22.50;99.90
36444;DHT22;24692;45.642;13.806;2023-06-04T05:51:08;22.50;99.90
36444;DHT22;24692;45.642;13.806;2023-06-04T05:53:34;22.50;99.90
36444;DHT22;24692;45.642;13.806;2023-06-04T05:56:00;22.60;99.90
36444;DHT22;24692;45.642;13.806;2023-06-04T05:58:26;22.70;99.90
36444;DHT22;24692;45.642;13.806;2023-06-04T06:00:52;22.80;99.90
36444;DHT22;24692;45.642;13.806;2023-06-04T06:03:18;22.90;99.90
36444;DHT22;24692;45.642;13.806;2023-06-04T06:05:44;23.10;99.90
36444;DHT22;24692;45.642;13.806;2023-06-04T06:08:10;23.20;99.90
36444;DHT22;24692;45.642;13.806;2023-06-04T06:10:36;23.40;99.90
36444;DHT22;24692;45.642;13.806;2023-06-04T06:13:02;23.50;99.90
36444;DHT22;24692;45.642;13.806;2023-06-04T06:15:27;23.60;99.90
36444;DHT22;24692;45.642;13.806;2023-06-04T06:17:54;23.70;99.90
36444;DHT22;24692;45.642;13.806;2023-06-04T06:20:20;23.80;99.90
36444;DHT22;24692;45.642;13.806;2023-06-04T06:22:47;23.90;99.90
36444;DHT22;24692;45.642;13.806;2023-06-04T06:25:13;24.20;99.90
36444;DHT22;24692;45.642;13.806;2023-06-04T06:27:41;24.40;99.90
36444;DHT22;24692;45.642;13.806;2023-06-04T06:30:08;24.50;99.90
36444;DHT22;24692;45.642;13.806;2023-06-04T06:32:34;24.50;99.90
36444;DHT22;24692;45.642;13.806;2023-06-04T06:35:01;24.70;99.90
36444;DHT22;24692;45.642;13.806;2023-06-04T06:37:26;24.80;99.90
36444;DHT22;24692;45.642;13.806;2023-06-04T06:39:52;25.00;99.90
36444;DHT22;24692;45.642;13.806;2023-06-04T06:42:18;25.00;99.90
36444;DHT22;24692;45.642;13.806;2023-06-04T06:44:44;25.30;99.90
36444;DHT22;24692;45.642;13.806;2023-06-04T06:47:10;25.30;99.90
36444;DHT22;24692;45.642;13.806;2023-06-04T06:49:39;25.50;99.90
36444;DHT22;24692;45.642;13.806;2023-06-04T06:52:05;25.60;99.90
36444;DHT22;24692;45.642;13.806;2023-06-04T06:54:31;25.50;99.90
36444;DHT22;24692;45.642;13.806;2023-06-04T06:56:56;25.60;99.90
36444;DHT22;24692;45.642;13.806;2023-06-04T06:59:23;25.80;99.90
36444;DHT22;24692;45.642;13.806;2023-06-04T07:01:49;25.90;99.90
36444;DHT22;24692;45.642;13.806;2023-06-04T07:04:15;25.90;99.90
36444;DHT22;24692;45.642;13.806;2023-06-04T07:06:41;25.90;99.90
36444;DHT22;24692;45.642;13.806;2023-06-04T07:09:07;26.00;99.90
36444;DHT22;24692;45.642;13.806;2023-06-04T07:11:34;26.10;99.90
36444;DHT22;24692;45.642;13.806;2023-06-04T07:13:59;26.40;99.90
36444;DHT22;24692;45.642;13.806;2023-06-04T07:16:28;26.50;99.90
36444;DHT22;24692;45.642;13.806;2023-06-04T07:18:54;26.50;99.90
36444;DHT22;24692;45.642;13.806;2023-06-04T07:21:20;26.60;99.90
36444;DHT22;24692;45.642;13.806;2023-06-04T07:23:47;26.90;99.90
36444;DHT22;24692;45.642;13.806;2023-06-04T07:26:15;26.40;99.90
36444;DHT22;24692;45.642;13.806;2023-06-04T07:28:41;26.00;99.90
36444;DHT22;24692;45.642;13.806;2023-06-04T07:31:07;26.10;99.90
36444;DHT22;24692;45.642;13.806;2023-06-04T07:33:33;25.40;99.90
36444;DHT22;24692;45.642;13.806;2023-06-04T07:35:58;24.80;99.90
36444;DHT22;24692;45.642;13.806;2023-06-04T07:38:24;24.70;99.90
36444;DHT22;24692;45.642;13.806;2023-06-04T07:40:51;24.50;99.90
36444;DHT22;24692;45.642;13.806;2023-06-04T07:43:17;24.70;99.90
36444;DHT22;24692;45.642;13.806;2023-06-04T07:45:42;24.70;99.90
36444;DHT22;24692;45.642;13.806;2023-06-04T07:48:11;24.80;99.90
36444;DHT22;24692;45.642;13.806;2023-06-04T07:50:37;25.00;99.90
36444;DHT22;24692;45.642;13.806;2023-06-04T07:53:03;25.40;99.90
36444;DHT22;24692;45.642;13.806;2023-06-04T07:55:28;25.70;99.90
36444;DHT22;24692;45.642;13.806;2023-06-04T07:57:54;25.60;99.90
36444;DHT22;24692;45.642;13.806;2023-06-04T08:00:20;25.60;99.90
36444;DHT22;24692;45.642;13.806;2023-06-04T08:02:46;25.20;99.90
36444;DHT22;24692;45.642;13.806;2023-06-04T08:05:11;24.90;99.90
36444;DHT22;24692;45.642;13.806;2023-06-04T08:07:40;24.90;99.90
36444;DHT22;24692;45.642;13.806;2023-06-04T08:10:06;25.00;99.90
36444;DHT22;24692;45.642;13.806;2023-06-04T08:12:32;25.10;99.90
36444;DHT22;24692;45.642;13.806;2023-06-04T08:14:57;25.00;99.90
36444;DHT22;24692;45.642;13.806;2023-06-04T08:17:23;25.10;99.90
36444;DHT22;24692;45.642;13.806;2023-06-04T08:19:49;25.10;99.90
36444;DHT22;24692;45.642;13.806;2023-06-04T08:22:15;25.10;99.90
36444;DHT22;24692;45.642;13.806;2023-06-04T08:24:41;24.90;99.90
36444;DHT22;24692;45.642;13.806;2023-06-04T08:27:07;25.10;99.90
36444;DHT22;24692;45.642;13.806;2023-06-04T08:29:34;25.30;99.90
36444;DHT22;24692;45.642;13.806;2023-06-04T08:32:01;25.40;99.90
36444;DHT22;24692;45.642;13.806;2023-06-04T08:34:28;25.60;99.90
36444;DHT22;24692;45.642;13.806;2023-06-04T08:36:53;25.40;99.90
36444;DHT22;24692;45.642;13.806;2023-06-04T08:39:19;25.50;99.90
36444;DHT22;24692;45.642;13.806;2023-06-04T08:41:51;25.60;99.90
36444;DHT22;24692;45.642;13.806;2023-06-04T08:44:17;25.40;99.90
36444;DHT22;24692;45.642;13.806;2023-06-04T08:46:44;25.60;99.90
36444;DHT22;24692;45.642;13.806;2023-06-04T08:49:12;25.20;99.90
36444;DHT22;24692;45.642;13.806;2023-06-04T08:51:38;25.00;99.90
36444;DHT22;24692;45.642;13.806;2023-06-04T08:54:08;25.10;99.90
36444;DHT22;24692;45.642;13.806;2023-06-04T08:56:35;25.20;99.90
36444;DHT22;24692;45.642;13.806;2023-06-04T08:59:05;25.30;99.90
36444;DHT22;24692;45.642;13.806;2023-06-04T09:01:35;25.70;99.90
36444;DHT22;24692;45.642;13.806;2023-06-04T09:04:04;25.70;99.90
36444;DHT22;24692;45.642;13.806;2023-06-04T09:06:32;26.10;99.90
36444;DHT22;24692;45.642;13.806;2023-06-04T09:08:58;26.30;99.90
36444;DHT22;24692;45.642;13.806;2023-06-04T09:11:35;26.60;99.90
36444;DHT22;24692;45.642;13.806;2023-06-04T09:14:04;26.90;99.90
36444;DHT22;24692;45.642;13.806;2023-06-04T09:16:32;26.70;99.90
36444;DHT22;24692;45.642;13.806;2023-06-04T09:19:04;26.70;99.90
36444;DHT22;24692;45.642;13.806;2023-06-04T09:21:29;27.20;99.90
36444;DHT22;24692;45.642;13.806;2023-06-04T09:23:55;27.00;99.90
36444;DHT22;24692;45.642;13.806;2023-06-04T09:26:21;27.40;99.90
36444;DHT22;24692;45.642;13.806;2023-06-04T09:28:47;27.50;99.90
36444;DHT22;24692;45.642;13.806;2023-06-04T09:31:16;27.40;99.90
36444;DHT22;24692;45.642;13.806;2023-06-04T09:33:49;27.10;99.90
36444;DHT22;24692;45.642;13.806;2023-06-04T09:36:15;27.10;99.90
36444;DHT22;24692;45.642;13.806;2023-06-04T09:38:42;27.10;99.90
36444;DHT22;24692;45.642;13.806;2023-06-04T09:41:12;27.20;99.90
36444;DHT22;24692;45.642;13.806;2023-06-04T09:43:38;27.00;99.90
36444;DHT22;24692;45.642;13.806;2023-06-04T09:46:11;26.60;99.90
36444;DHT22;24692;45.642;13.806;2023-06-04T09:48:38;26.30;99.90
36444;DHT22;24692;45.642;13.806;2023-06-04T09:51:11;25.80;99.90
36444;DHT22;24692;45.642;13.806;2023-06-04T09:53:38;25.50;99.90
36444;DHT22;24692;45.642;13.806;2023-06-04T09:56:04;25.50;99.90
36444;DHT22;24692;45.642;13.806;2023-06-04T09:58:32;25.70;99.90
36444;DHT22;24692;45.642;13.806;2023-06-04T10:01:00;26.00;99.90
36444;DHT22;24692;45.642;13.806;2023-06-04T10:03:34;26.60;99.90
36444;DHT22;24692;45.642;13.806;2023-06-04T10:06:03;27.60;99.90
36444;DHT22;24692;45.642;13.806;2023-06-04T10:08:30;28.80;99.90
36444;DHT22;24692;45.642;13.806;2023-06-04T10:10:58;29.40;99.90
36444;DHT22;24692;45.642;13.806;2023-06-04T10:13:30;29.90;99.90
36444;DHT22;24692;45.642;13.806;2023-06-04T10:15:58;29.30;99.90
36444;DHT22;24692;45.642;13.806;2023-06-04T10:18:27;29.30;99.90
36444;DHT22;24692;45.642;13.806;2023-06-04T10:20:56;29.40;99.90
36444;DHT22;24692;45.642;13.806;2023-06-04T10:23:23;29.10;99.90
36444;DHT22;24692;45.642;13.806;2023-06-04T10:25:49;28.60;99.90
36444;DHT22;24692;45.642;13.806;2023-06-04T10:28:18;28.10;99.90
36444;DHT22;24692;45.642;13.806;2023-06-04T10:30:48;28.20;99.90
36444;DHT22;24692;45.642;13.806;2023-06-04T10:33:17;28.20;99.90
36444;DHT22;24692;45.642;13.806;2023-06-04T10:35:43;27.80;99.90
36444;DHT22;24692;45.642;13.806;2023-06-04T10:38:10;27.70;99.90
36444;DHT22;24692;45.642;13.806;2023-06-04T10:40:38;27.60;99.90
36444;DHT22;24692;45.642;13.806;2023-06-04T10:43:11;27.60;99.90
36444;DHT22;24692;45.642;13.806;2023-06-04T10:45:37;28.00;99.90
36444;DHT22;24692;45.642;13.806;2023-06-04T10:48:05;28.40;99.90
36444;DHT22;24692;45.642;13.806;2023-06-04T10:50:35;28.80;99.90
36444;DHT22;24692;45.642;13.806;2023-06-04T10:53:01;29.00;99.90
36444;DHT22;24692;45.642;13.806;2023-06-04T10:55:31;29.10;99.90
36444;DHT22;24692;45.642;13.806;2023-06-04T10:58:01;29.10;99.90
36444;DHT22;24692;45.642;13.806;2023-06-04T11:00:42;28.50;99.90
36444;DHT22;24692;45.642;13.806;2023-06-04T11:03:10;28.30;99.90
36444;DHT22;24692;45.642;13.806;2023-06-04T11:05:41;27.80;99.90
36444;DHT22;24692;45.642;13.806;2023-06-04T11:08:11;27.10;99.90
36444;DHT22;24692;45.642;13.806;2023-06-04T11:10:42;26.70;99.90
36444;DHT22;24692;45.642;13.806;2023-06-04T11:13:08;26.40;99.90
36444;DHT22;24692;45.642;13.806;2023-06-04T11:15:44;26.10;99.90
36444;DHT22;24692;45.642;13.806;2023-06-04T11:18:18;25.80;99.90
36444;DHT22;24692;45.642;13.806;2023-06-04T11:20:48;25.60;99.90
36444;DHT22;24692;45.642;13.806;2023-06-04T11:23:14;25.10;99.90
36444;DHT22;24692;45.642;13.806;2023-06-04T11:25:40;24.90;99.90
36444;DHT22;24692;45.642;13.806;2023-06-04T11:28:14;24.50;99.90
36444;DHT22;24692;45.642;13.806;2023-06-04T11:30:41;24.40;99.90
36444;DHT22;24692;45.642;13.806;2023-06-04T11:33:06;24.40;99.90
36444;DHT22;24692;45.642;13.806;2023-06-04T11:35:40;24.30;99.90
36444;DHT22;24692;45.642;13.806;2023-06-04T11:38:06;24.70;99.90
36444;DHT22;24692;45.642;13.806;2023-06-04T11:40:32;25.20;99.90
36444;DHT22;24692;45.642;13.806;2023-06-04T11:42:58;25.60;99.90
36444;DHT22;24692;45.642;13.806;2023-06-04T11:45:24;26.80;99.90
36444;DHT22;24692;45.642;13.806;2023-06-04T11:47:54;27.60;99.90
36444;DHT22;24692;45.642;13.806;2023-06-04T11:50:22;27.60;99.90
36444;DHT22;24692;45.642;13.806;2023-06-04T11:52:48;27.10;99.90
36444;DHT22;24692;45.642;13.806;2023-06-04T11:55:15;26.70;99.90
36444;DHT22;24692;45.642;13.806;2023-06-04T11:57:43;26.70;99.90
36444;DHT22;24692;45.642;13.806;2023-06-04T12:00:09;27.20;99.90
36444;DHT22;24692;45.642;13.806;2023-06-04T12:02:51;27.10;99.90
36444;DHT22;24692;45.642;13.806;2023-06-04T12:05:18;27.10;99.90
36444;DHT22;24692;45.642;13.806;2023-06-04T12:07:45;27.10;99.90
36444;DHT22;24692;45.642;13.806;2023-06-04T12:10:11;27.40;99.90
36444;DHT22;24692;45.642;13.806;2023-06-04T12:12:37;27.30;99.90
36444;DHT22;24692;45.642;13.806;2023-06-04T12:15:04;27.10;99.90
36444;DHT22;24692;45.642;13.806;2023-06-04T12:17:31;27.50;99.90
36444;DHT22;24692;45.642;13.806;2023-06-04T12:19:57;28.20;99.90
36444;DHT22;24692;45.642;13.806;2023-06-04T12:22:24;28.10;99.90
36444;DHT22;24692;45.642;13.806;2023-06-04T12:24:54;28.70;99.90
36444;DHT22;24692;45.642;13.806;2023-06-04T12:27:20;29.60;99.90
36444;DHT22;24692;45.642;13.806;2023-06-04T12:30:03;29.60;99.90
36444;DHT22;24692;45.642;13.806;2023-06-04T12:32:29;30.20;99.90
36444;DHT22;24692;45.642;13.806;2023-06-04T12:34:55;31.00;99.90
36444;DHT22;24692;45.642;13.806;2023-06-04T12:37:24;31.00;99.90
36444;DHT22;24692;45.642;13.806;2023-06-04T12:39:53;32.20;99.90
36444;DHT22;24692;45.642;13.806;2023-06-04T12:42:20;32.80;99.90
36444;DHT22;24692;45.642;13.806;2023-06-04T12:44:46;33.40;99.90
36444;DHT22;24692;45.642;13.806;2023-06-04T12:47:12;32.80;99.90
36444;DHT22;24692;45.642;13.806;2023-06-04T12:49:37;32.10;99.90
36444;DHT22;24692;45.642;13.806;2023-06-04T12:52:04;31.00;99.90
36444;DHT22;24692;45.642;13.806;2023-06-04T12:54:30;30.60;99.90
36444;DHT22;24692;45.642;13.806;2023-06-04T12:56:56;30.20;99.90
36444;DHT22;24692;45.642;13.806;2023-06-04T12:59:26;30.00;99.90
36444;DHT22;24692;45.642;13.806;2023-06-04T13:01:53;30.90;99.90
36444;DHT22;24692;45.642;13.806;2023-06-04T13:04:18;31.60;99.90
36444;DHT22;24692;45.642;13.806;2023-06-04T13:06:44;32.20;99.90
36444;DHT22;24692;45.642;13.806;2023-06-04T13:09:11;32.50;99.90
36444;DHT22;24692;45.642;13.806;2023-06-04T13:11:39;32.50;99.90
36444;DHT22;24692;45.642;13.806;2023-06-04T13:14:05;31.70;99.90
36444;DHT22;24692;45.642;13.806;2023-06-04T13:16:31;31.10;99.90
36444;DHT22;24692;45.642;13.806;2023-06-04T13:18:56;31.60;99.90
36444;DHT22;24692;45.642;13.806;2023-06-04T13:21:22;32.50;99.90
36444;DHT22;24692;45.642;13.806;2023-06-04T13:23:48;33.50;99.90
36444;DHT22;24692;45.642;13.806;2023-06-04T13:26:15;33.90;99.90
36444;DHT22;24692;45.642;13.806;2023-06-04T13:28:41;33.90;99.90
36444;DHT22;24692;45.642;13.806;2023-06-04T13:31:07;34.10;99.90
36444;DHT22;24692;45.642;13.806;2023-06-04T13:33:32;33.80;99.90
36444;DHT22;24692;45.642;13.806;2023-06-04T13:36:00;33.80;99.90
36444;DHT22;24692;45.642;13.806;2023-06-04T13:38:26;33.60;99.90
36444;DHT22;24692;45.642;13.806;2023-06-04T13:40:52;33.60;99.90
36444;DHT22;24692;45.642;13.806;2023-06-04T13:43:18;33.60;99.90
36444;DHT22;24692;45.642;13.806;2023-06-04T13:45:43;33.10;99.90
36444;DHT22;24692;45.642;13.806;2023-06-04T13:48:11;32.60;99.90
36444;DHT22;24692;45.642;13.806;2023-06-04T13:50:37;33.00;99.90
36444;DHT22;24692;45.642;13.806;2023-06-04T13:53:03;33.20;99.90
36444;DHT22;24692;45.642;13.806;2023-06-04T13:55:29;33.70;99.90
36444;DHT22;24692;45.642;13.806;2023-06-04T13:57:55;33.60;99.90
36444;DHT22;24692;45.642;13.806;2023-06-04T14:00:21;33.50;99.90
36444;DHT22;24692;45.642;13.806;2023-06-04T14:02:50;33.40;99.90
36444;DHT22;24692;45.642;13.806;2023-06-04T14:05:16;33.40;99.90
36444;DHT22;24692;45.642;13.806;2023-06-04T14:07:42;33.10;99.90
36444;DHT22;24692;45.642;13.806;2023-06-04T14:10:09;32.60;99.90
36444;DHT22;24692;45.642;13.806;2023-06-04T14:12:36;32.30;99.90
36444;DHT22;24692;45.642;13.806;2023-06-04T14:15:02;32.30;99.90
36444;DHT22;24692;45.642;13.806;2023-06-04T14:17:28;32.10;99.90
36444;DHT22;24692;45.642;13.806;2023-06-04T14:19:53;32.10;99.90
36444;DHT22;24692;45.642;13.806;2023-06-04T14:22:19;32.30;99.90
36444;DHT22;24692;45.642;13.806;2023-06-04T14:24:45;32.10;99.90
36444;DHT22;24692;45.642;13.806;2023-06-04T14:27:10;32.30;99.90
36444;DHT22;24692;45.642;13.806;2023-06-04T14:29:36;32.40;99.90
36444;DHT22;24692;45.642;13.806;2023-06-04T14:32:04;32.80;99.90
36444;DHT22;24692;45.642;13.806;2023-06-04T14:34:30;32.70;99.90
36444;DHT22;24692;45.642;13.806;2023-06-04T14:36:57;32.70;99.90
36444;DHT22;24692;45.642;13.806;2023-06-04T14:39:25;32.80;99.90
36444;DHT22;24692;45.642;13.806;2023-06-04T14:41:51;33.00;99.90
36444;DHT22;24692;45.642;13.806;2023-06-04T14:44:18;32.70;99.90
36444;DHT22;24692;45.642;13.806;2023-06-04T14:46:43;32.60;99.90
36444;DHT22;24692;45.642;13.806;2023-06-04T14:49:09;32.50;99.90
36444;DHT22;24692;45.642;13.806;2023-06-04T14:51:35;32.00;99.90
36444;DHT22;24692;45.642;13.806;2023-06-04T14:54:02;32.00;99.90
36444;DHT22;24692;45.642;13.806;2023-06-04T14:56:28;32.30;99.90
36444;DHT22;24692;45.642;13.806;2023-06-04T14:58:56;32.10;99.90
36444;DHT22;24692;45.642;13.806;2023-06-04T15:01:21;31.60;99.90
36444;DHT22;24692;45.642;13.806;2023-06-04T15:03:50;31.30;99.90
36444;DHT22;24692;45.642;13.806;2023-06-04T15:06:16;31.10;99.90
36444;DHT22;24692;45.642;13.806;2023-06-04T15:08:41;31.00;99.90
36444;DHT22;24692;45.642;13.806;2023-06-04T15:11:07;30.80;99.90
36444;DHT22;24692;45.642;13.806;2023-06-04T15:13:33;30.90;99.90
36444;DHT22;24692;45.642;13.806;2023-06-04T15:15:58;31.00;99.90
36444;DHT22;24692;45.642;13.806;2023-06-04T15:18:24;31.10;99.90